Time;durP1;ratioP1;P1;durP2;ratioP2;P2;SDS_P1;SDS_P2;PMS_P1;PMS_P2;Temp;Humidity;BMP_temperature;BMP_pressure;BME280_temperature;BME280_humidity;BME280_pressure;Samples;Min_cycle;Max_cycle;Signal;HPM_P1;HPM_P2
2022/01/26 00:06:43;;;;;;;64.13;39.97;;;;;;;-3.11;83.29;99848.66;1707866;84;21133;-80
2022/01/26 00:09:10;;;;;;;57.97;38.83;;;;;;;-2.99;83.63;99847.89;1694791;83;20992;-82
2022/01/26 00:11:37;;;;;;;69.43;41.33;;;;;;;-2.97;83.43;99842.78;1707050;83;20993;-86
2022/01/26 00:14:09;;;;;;;65.00;41.93;;;;;;;-2.98;83.34;99845.11;1694426;83;20913;-83
2022/01/26 00:16:39;;;;;;;63.23;40.87;;;;;;;-2.99;83.35;99838.20;1710603;83;21010;-84
2022/01/26 00:19:06;;;;;;;62.07;40.03;;;;;;;-2.99;83.40;99843.95;1689054;84;21728;-82
2022/01/26 00:21:36;;;;;;;64.67;38.10;;;;;;;-2.97;83.61;99840.68;1691716;84;20960;-83
2022/01/26 00:24:21;;;;;;;67.07;43.63;;;;;;;-2.97;83.47;99840.68;1715367;82;21015;-75
2022/01/26 00:29:13;;;;;;;63.90;39.13;;;;;;;-3.01;83.60;99834.06;1704643;83;21323;-78
2022/01/26 00:33:06;;;;;;;64.47;39.73;;;;;;;-3.01;83.85;99829.62;1712994;83;21058;-81
2022/01/26 00:40:19;;;;;;;63.90;38.07;;;;;;;-2.92;84.17;99823.41;1694324;84;21016;-73
2022/01/26 00:42:42;;;;;;;60.83;38.00;;;;;;;-2.94;84.19;99826.70;1672144;84;21027;-73
2022/01/26 00:45:08;;;;;;;63.33;40.63;;;;;;;-2.92;84.36;99826.52;1691996;84;21935;-72
2022/01/26 00:47:35;;;;;;;73.13;42.50;;;;;;;-2.84;84.57;99825.25;1670667;84;22126;-76
2022/01/26 00:50:06;;;;;;;65.03;40.37;;;;;;;-2.78;84.56;99816.20;1694386;84;21916;-78
2022/01/26 00:52:39;;;;;;;65.27;41.50;;;;;;;-2.69;84.59;99823.64;1692396;84;21105;-83
2022/01/26 00:54:58;;;;;;;61.60;40.37;;;;;;;-2.73;84.29;99817.86;1689440;84;21055;-81
2022/01/26 00:57:24;;;;;;;73.53;45.27;;;;;;;-2.71;84.53;99815.08;1668460;84;21796;-82
2022/01/26 00:59:51;;;;;;;66.57;41.40;;;;;;;-2.66;84.54;99814.09;1669839;84;22327;-77
2022/01/26 01:02:17;;;;;;;60.40;40.50;;;;;;;-2.59;84.52;99810.33;1693115;84;21496;-75
2022/01/26 01:04:44;;;;;;;63.90;41.33;;;;;;;-2.60;84.28;99806.05;1694542;84;21126;-78
2022/01/26 01:07:16;;;;;;;67.10;41.70;;;;;;;-2.64;84.19;99808.19;1675709;84;21011;-76
2022/01/26 01:09:38;;;;;;;71.93;42.73;;;;;;;-2.67;84.34;99805.38;1693784;84;21255;-77
2022/01/26 01:12:06;;;;;;;59.93;38.97;;;;;;;-2.66;84.29;99798.30;1693339;84;22011;-84
2022/01/26 01:14:37;;;;;;;64.33;37.27;;;;;;;-2.68;84.44;99795.00;1647963;84;21069;-86
2022/01/26 01:17:03;;;;;;;68.77;42.37;;;;;;;-2.68;84.51;99791.05;1691687;84;21017;-88
2022/01/26 01:19:35;;;;;;;54.50;33.80;;;;;;;-2.68;84.65;99787.10;1670983;84;21097;-85
2022/01/26 01:22:25;;;;;;;70.77;44.53;;;;;;;-2.65;84.82;99784.16;1691951;84;21087;-77
2022/01/26 01:29:40;;;;;;;67.07;41.67;;;;;;;-2.67;85.14;99769.02;1694420;84;21095;-78
2022/01/26 01:32:02;;;;;;;73.87;43.40;;;;;;;-2.66;85.22;99768.03;1693714;84;20996;-78
2022/01/26 01:34:38;;;;;;;58.87;37.17;;;;;;;-2.64;85.35;99766.07;1713845;82;22221;-76
2022/01/26 01:37:09;;;;;;;68.80;42.37;;;;;;;-2.62;85.48;99765.40;1722617;81;21043;-74
2022/01/26 01:39:36;;;;;;;70.03;38.47;;;;;;;-2.62;85.51;99762.77;1689671;83;21611;-74
2022/01/26 01:42:05;;;;;;;65.40;41.10;;;;;;;-2.61;85.63;99762.27;1733318;81;20968;-75
2022/01/26 01:44:32;;;;;;;64.87;36.60;;;;;;;-2.65;85.61;99757.35;1697978;83;21005;-75
2022/01/26 01:46:58;;;;;;;73.97;45.23;;;;;;;-2.67;85.80;99754.05;1703898;83;21080;-76
2022/01/26 01:49:24;;;;;;;71.00;41.20;;;;;;;-2.68;85.96;99745.81;1668420;84;21599;-74
2022/01/26 01:51:59;;;;;;;72.27;41.63;;;;;;;-2.65;86.18;99742.05;1718257;83;21511;-76
2022/01/26 01:54:22;;;;;;;74.57;44.43;;;;;;;-2.57;86.41;99735.95;1726884;83;21492;-75
2022/01/26 01:56:55;;;;;;;73.80;42.73;;;;;;;-2.49;86.42;99738.08;1725030;83;21104;-75
2022/01/26 01:59:25;;;;;;;69.80;42.97;;;;;;;-2.39;86.41;99735.28;1728725;82;21116;-77
2022/01/26 02:01:51;;;;;;;70.83;41.37;;;;;;;-2.37;86.20;99739.89;1714753;83;21007;-75
2022/01/26 02:04:18;;;;;;;70.83;43.20;;;;;;;-2.36;86.17;99739.74;1702438;83;20972;-74
2022/01/26 02:06:45;;;;;;;67.97;45.00;;;;;;;-2.38;86.05;99740.39;1726913;83;21078;-73
2022/01/26 02:09:11;;;;;;;74.57;44.37;;;;;;;-2.40;86.02;99737.61;1727488;83;21001;-75
2022/01/26 02:11:48;;;;;;;62.67;36.30;;;;;;;-2.41;86.09;99739.41;1736309;82;21066;-70
2022/01/26 02:14:35;;;;;;;69.03;39.37;;;;;;;-2.42;86.14;99738.25;1710223;83;20969;-72
2022/01/26 02:52:52;;;;;;;71.70;41.90;;;;;;;-2.59;87.90;99742.72;1722829;82;21089;-72
2022/01/26 03:00:35;;;;;;;64.43;39.17;;;;;;;-2.53;88.14;99745.16;1722203;83;21007;-73
2022/01/26 03:03:09;;;;;;;58.00;34.93;;;;;;;-2.46;88.27;99747.48;1722513;83;20989;-74
2022/01/26 03:05:27;;;;;;;73.23;42.83;;;;;;;-2.43;88.26;99753.72;1711447;83;21085;-74
2022/01/26 03:07:55;;;;;;;71.27;42.33;;;;;;;-2.42;88.32;99744.84;1705272;83;21079;-73
2022/01/26 03:10:33;;;;;;;69.47;46.23;;;;;;;-2.40;88.31;99741.56;1721576;83;21030;-73
2022/01/26 03:12:55;;;;;;;54.63;33.13;;;;;;;-2.39;88.35;99737.91;1698666;83;21097;-74
2022/01/26 03:15:23;;;;;;;67.97;41.30;;;;;;;-2.38;88.37;99746.97;1721454;83;21006;-73
2022/01/26 03:20:33;;;;;;;65.27;39.77;;;;;;;-2.39;88.55;99752.39;1721910;83;20951;-73
2022/01/26 03:28:47;;;;;;;69.20;38.57;;;;;;;-2.34;88.67;99749.59;1715750;83;20993;-74
2022/01/26 03:33:54;;;;;;;63.40;34.87;;;;;;;-2.39;88.81;99758.48;1703880;84;21498;-72
2022/01/26 03:36:14;;;;;;;60.53;34.47;;;;;;;-2.40;88.95;99760.78;1715053;82;21048;-73
2022/01/26 03:38:47;;;;;;;57.30;34.60;;;;;;;-2.39;89.04;99755.03;1703670;83;20997;-75
2022/01/26 03:41:30;;;;;;;64.40;35.20;;;;;;;-2.41;89.10;99752.58;1698179;83;21026;-76
2022/01/26 03:43:43;;;;;;;59.70;36.33;;;;;;;-2.41;89.24;99757.02;1710964;83;21814;-75
2022/01/26 03:46:09;;;;;;;64.50;36.67;;;;;;;-2.43;89.32;99758.49;1714685;83;20944;-75
2022/01/26 03:48:36;;;;;;;57.87;34.33;;;;;;;-2.43;89.51;99757.17;1723464;83;20984;-77
2022/01/26 03:51:03;;;;;;;63.83;36.13;;;;;;;-2.43;89.67;99762.93;1691822;83;21017;-71
2022/01/26 03:53:29;;;;;;;61.50;33.70;;;;;;;-2.45;89.91;99757.03;1734642;82;21084;-74
2022/01/26 03:55:56;;;;;;;65.60;37.13;;;;;;;-2.44;90.26;99763.91;1716347;83;21162;-77
2022/01/26 03:58:22;;;;;;;67.77;36.90;;;;;;;-2.42;90.46;99765.91;1720559;82;21031;-75
2022/01/26 04:00:48;;;;;;;61.00;34.57;;;;;;;-2.38;90.72;99768.53;1691122;83;20988;-74
2022/01/26 04:03:15;;;;;;;65.50;39.00;;;;;;;-2.35;90.77;99765.06;1725215;83;20996;-78
2022/01/26 04:05:42;;;;;;;53.77;32.60;;;;;;;-2.30;90.88;99764.56;1723910;83;21092;-76
2022/01/26 04:08:14;;;;;;;59.23;35.13;;;;;;;-2.27;90.97;99761.62;1692916;83;21036;-78
2022/01/26 04:11:28;;;;;;;57.37;33.13;;;;;;;-2.27;90.96;99763.77;1665029;85;21116;-72
2022/01/26 04:13:10;;;;;;;62.03;32.40;;;;;;;-2.27;91.03;99763.77;1653146;83;21498;-72
2022/01/26 04:15:38;;;;;;;52.67;31.50;;;;;;;-2.26;91.19;99764.10;1725335;83;21003;-72
2022/01/26 04:18:07;;;;;;;53.00;30.63;;;;;;;-2.25;91.25;99768.36;1700580;83;21008;-73
2022/01/26 04:20:38;;;;;;;67.83;36.83;;;;;;;-2.22;91.43;99766.73;1724684;83;21294;-71
2022/01/26 04:25:47;;;;;;;60.20;35.57;;;;;;;-2.18;91.47;99770.33;1693522;83;20997;-74
2022/01/26 04:28:20;;;;;;;59.43;37.73;;;;;;;-2.14;91.68;99765.05;1734313;82;21020;-74
2022/01/26 04:30:42;;;;;;;59.80;33.97;;;;;;;-2.14;91.57;99766.38;1717895;83;21529;-73
2022/01/26 04:33:08;;;;;;;64.93;37.33;;;;;;;-2.16;91.61;99761.78;1718128;83;21753;-72
2022/01/26 04:35:35;;;;;;;64.27;33.33;;;;;;;-2.17;91.75;99764.91;1716514;83;21055;-73
2022/01/26 04:38:20;;;;;;;61.57;37.80;;;;;;;-2.12;91.83;99764.41;1706346;83;20993;-73
2022/01/26 04:40:50;;;;;;;59.30;34.50;;;;;;;-2.09;91.84;99761.43;1703221;83;20994;-73
2022/01/26 04:43:16;;;;;;;66.60;37.07;;;;;;;-2.08;91.81;99765.22;1682917;84;21338;-73
2022/01/26 04:45:37;;;;;;;64.10;33.97;;;;;;;-2.06;91.80;99762.43;1685233;84;21255;-73
2022/01/26 04:48:04;;;;;;;65.70;35.83;;;;;;;-2.03;91.81;99773.94;1685908;84;21429;-76
2022/01/26 04:50:30;;;;;;;62.60;35.17;;;;;;;-2.01;91.68;99758.28;1685810;84;21022;-75
2022/01/26 04:52:57;;;;;;;58.57;33.83;;;;;;;-2.03;91.62;99768.18;1714426;83;21125;-72
2022/01/26 04:55:23;;;;;;;62.27;35.03;;;;;;;-2.03;91.58;99768.67;1706063;84;21047;-72
2022/01/26 04:57:49;;;;;;;65.13;36.63;;;;;;;-2.00;91.69;99769.64;1692526;83;21019;-73
2022/01/26 05:00:16;;;;;;;58.87;31.23;;;;;;;-1.99;91.63;99773.94;1714217;82;20963;-74
2022/01/26 05:02:42;;;;;;;58.90;33.63;;;;;;;-1.99;91.52;99779.20;1687890;84;21495;-75
2022/01/26 05:05:08;;;;;;;62.90;36.53;;;;;;;-2.01;91.53;99771.45;1701978;83;22190;-74
2022/01/26 05:07:35;;;;;;;56.30;35.43;;;;;;;-2.06;91.62;99780.87;1714510;82;21003;-74
2022/01/26 05:10:03;;;;;;;42.17;25.17;;;;;;;-2.10;91.67;99783.00;1706063;84;21514;-75
2022/01/26 05:12:31;;;;;;;60.80;33.73;;;;;;;-2.13;91.85;99793.05;1711315;83;20980;-74
2022/01/26 05:14:58;;;;;;;57.03;35.50;;;;;;;-2.21;91.93;99793.37;1682986;85;21553;-75
2022/01/26 05:17:24;;;;;;;61.37;35.50;;;;;;;-2.22;92.04;99784.34;1713624;82;21032;-78
2022/01/26 05:19:56;;;;;;;60.13;32.43;;;;;;;-2.27;92.31;99783.52;1637739;85;21018;-77
2022/01/26 05:22:19;;;;;;;49.93;32.17;;;;;;;-2.26;92.51;99781.22;1660368;85;21840;-74
2022/01/26 05:24:47;;;;;;;52.13;29.50;;;;;;;-2.24;92.47;99790.25;1704904;83;20985;-74
2022/01/26 05:27:14;;;;;;;67.70;36.70;;;;;;;-2.29;92.67;99791.24;1707312;83;21019;-73
2022/01/26 05:29:41;;;;;;;53.93;29.83;;;;;;;-2.27;92.58;99790.11;1707533;84;21562;-75
2022/01/26 05:32:07;;;;;;;45.63;25.57;;;;;;;-2.21;92.69;99785.99;1714597;82;20992;-82
2022/01/26 05:34:33;;;;;;;59.90;31.40;;;;;;;-2.23;92.60;99791.41;1713014;83;21096;-73
2022/01/26 05:37:00;;;;;;;55.70;33.30;;;;;;;-2.27;92.46;99801.95;1744024;81;21063;-71
2022/01/26 05:39:26;;;;;;;61.07;36.83;;;;;;;-2.26;92.49;99809.37;1696237;83;21032;-74
2022/01/26 05:41:52;;;;;;;57.10;34.83;;;;;;;-2.32;92.40;99801.63;1693219;83;21057;-75
2022/01/26 05:44:19;;;;;;;62.53;32.40;;;;;;;-2.37;92.42;99805.25;1669681;83;21105;-73
2022/01/26 05:46:48;;;;;;;53.60;27.63;;;;;;;-2.42;92.51;99798.33;1703517;83;21060;-73
2022/01/26 05:49:13;;;;;;;53.43;28.87;;;;;;;-2.42;92.69;99822.03;1703473;83;21054;-74
2022/01/26 05:51:40;;;;;;;49.83;28.73;;;;;;;-2.50;92.76;99813.30;1710090;83;21005;-73
2022/01/26 05:54:09;;;;;;;56.57;33.10;;;;;;;-2.52;92.86;99813.95;1674948;84;21077;-74
2022/01/26 05:56:35;;;;;;;55.73;31.30;;;;;;;-2.52;92.86;99812.63;1669373;86;21019;-74
2022/01/26 05:59:01;;;;;;;60.43;33.40;;;;;;;-2.49;92.99;99817.07;1661026;83;21089;-74
2022/01/26 06:01:27;;;;;;;63.23;35.17;;;;;;;-2.47;92.96;99820.38;1700292;83;20937;-74
2022/01/26 06:03:53;;;;;;;70.97;34.93;;;;;;;-2.43;92.98;99819.06;1725115;83;21022;-75
2022/01/26 06:06:20;;;;;;;68.30;37.87;;;;;;;-2.40;92.77;99817.41;1700239;83;21094;-73
2022/01/26 06:08:46;;;;;;;70.67;36.40;;;;;;;-2.40;92.52;99829.77;1723702;82;21064;-74
2022/01/26 06:11:13;;;;;;;70.50;36.07;;;;;;;-2.37;92.51;99832.90;1669006;83;21540;-72
2022/01/26 06:13:39;;;;;;;66.87;35.63;;;;;;;-2.35;92.25;99828.80;1705648;82;21056;-71
2022/01/26 06:16:05;;;;;;;66.27;34.03;;;;;;;-2.37;92.19;99830.27;1721551;83;21641;-73
2022/01/26 06:18:33;;;;;;;56.37;34.83;;;;;;;-2.37;92.21;99823.67;1718181;83;21001;-73
2022/01/26 06:20:59;;;;;;;53.80;28.10;;;;;;;-2.36;92.07;99846.89;1725629;83;21042;-73
2022/01/26 06:23:27;;;;;;;61.07;32.97;;;;;;;-2.41;91.84;99823.68;1725261;82;21303;-75
2022/01/26 06:25:55;;;;;;;49.13;25.87;;;;;;;-2.44;91.79;99831.89;1724960;83;21074;-73
2022/01/26 06:28:24;;;;;;;55.33;34.13;;;;;;;-2.47;91.94;99831.40;1700479;83;21577;-74
2022/01/26 06:30:52;;;;;;;55.10;31.70;;;;;;;-2.44;91.90;99835.02;1670146;83;20977;-72
2022/01/26 06:33:18;;;;;;;58.67;32.07;;;;;;;-2.41;91.94;99838.16;1725179;83;21031;-76
2022/01/26 06:35:46;;;;;;;50.33;31.47;;;;;;;-2.41;91.72;99838.16;1724169;82;21529;-71
2022/01/26 06:38:14;;;;;;;58.67;31.90;;;;;;;-2.49;91.75;99836.81;1724389;82;21056;-73
2022/01/26 06:40:41;;;;;;;56.60;30.73;;;;;;;-2.56;91.97;99846.37;1695709;83;21059;-73
2022/01/26 06:43:11;;;;;;;62.40;35.10;;;;;;;-2.59;92.16;99843.24;1723789;83;20954;-74
2022/01/26 06:45:40;;;;;;;52.67;27.93;;;;;;;-2.62;92.36;99856.70;1722054;83;21578;-71
2022/01/26 06:50:39;;;;;;;52.47;28.90;;;;;;;-2.69;92.73;99863.95;1725186;82;20963;-77
2022/01/26 06:53:06;;;;;;;62.30;32.40;;;;;;;-2.68;92.80;99868.21;1698835;83;21108;-74
2022/01/26 06:55:32;;;;;;;62.00;33.30;;;;;;;-2.67;92.85;99865.09;1696348;83;21018;-75
2022/01/26 06:57:59;;;;;;;52.13;30.73;;;;;;;-2.72;92.92;99873.95;1725310;82;21093;-75
2022/01/26 07:00:26;;;;;;;57.37;31.13;;;;;;;-2.68;93.06;99869.52;1672639;83;21995;-70
2022/01/26 07:02:54;;;;;;;54.67;31.03;;;;;;;-2.62;93.07;99870.70;1724970;83;21527;-73
2022/01/26 07:05:21;;;;;;;50.47;27.33;;;;;;;-2.58;93.01;99882.55;1725286;83;21010;-72
2022/01/26 07:07:47;;;;;;;56.60;31.33;;;;;;;-2.61;92.88;99878.10;1725270;83;21121;-73
2022/01/26 07:10:14;;;;;;;53.47;30.67;;;;;;;-2.69;92.83;99874.48;1724915;83;21018;-75
2022/01/26 07:12:40;;;;;;;50.00;25.47;;;;;;;-2.62;92.91;99883.03;1700463;83;21855;-76
2022/01/26 07:21:22;;;;;;;57.20;32.87;;;;;;;-2.63;92.73;99894.05;1692126;83;20969;-73
2022/01/26 07:23:10;;;;;;;38.27;20.67;;;;;;;-2.56;92.77;99904.28;1727240;82;21048;-75
2022/01/26 07:25:36;;;;;;;53.00;29.27;;;;;;;-2.55;92.63;99895.41;1714901;83;21143;-75
2022/01/26 07:28:05;;;;;;;57.53;31.80;;;;;;;-2.51;92.55;99894.09;1725560;83;21011;-72
2022/01/26 07:30:32;;;;;;;56.87;31.53;;;;;;;-2.47;92.51;99903.81;1725194;83;21524;-73
2022/01/26 07:32:58;;;;;;;58.67;29.83;;;;;;;-2.42;92.44;99898.88;1718648;83;21061;-77
2022/01/26 07:35:25;;;;;;;60.93;33.83;;;;;;;-2.35;92.40;99906.48;1689617;84;21080;-75
2022/01/26 07:37:53;;;;;;;52.03;29.33;;;;;;;-2.36;92.08;99914.05;1723099;83;21615;-75
2022/01/26 07:40:21;;;;;;;51.53;29.40;;;;;;;-2.33;92.14;99910.59;1702839;83;21579;-74
2022/01/26 07:42:48;;;;;;;50.07;27.73;;;;;;;-2.26;92.13;99912.92;1674601;83;21082;-77
2022/01/26 07:45:17;;;;;;;58.37;31.70;;;;;;;-2.16;92.13;99919.36;1697769;82;20955;-77
2022/01/26 07:47:44;;;;;;;50.37;31.47;;;;;;;-2.17;91.60;99911.12;1724730;83;20935;-76
2022/01/26 07:50:13;;;;;;;55.63;31.07;;;;;;;-2.15;91.44;99916.20;1724493;83;21145;-75
2022/01/26 07:52:42;;;;;;;54.53;29.20;;;;;;;-2.21;91.25;99917.70;1723645;82;21550;-74
2022/01/26 07:55:11;;;;;;;43.73;26.30;;;;;;;-2.22;91.33;99922.14;1681086;84;21042;-77
2022/01/26 07:57:38;;;;;;;53.70;29.27;;;;;;;-2.15;91.29;99926.25;1711828;82;21671;-74
2022/01/26 08:00:06;;;;;;;49.90;29.30;;;;;;;-2.08;91.12;99936.97;1689063;83;21064;-76
2022/01/26 08:02:34;;;;;;;52.63;30.87;;;;;;;-2.12;90.77;99925.12;1754261;81;21852;-77
2022/01/26 08:05:01;;;;;;;44.50;23.03;;;;;;;-2.08;90.91;99931.22;1730322;81;20911;-79
2022/01/26 08:07:28;;;;;;;50.80;27.10;;;;;;;-1.98;90.88;99927.11;1724948;83;20978;-76
2022/01/26 08:09:54;;;;;;;40.83;26.00;;;;;;;-1.92;90.81;99929.09;1721172;83;21027;-77
2022/01/26 08:12:22;;;;;;;49.40;26.70;;;;;;;-1.86;90.54;99928.42;1708595;84;20991;-78
2022/01/26 08:14:49;;;;;;;41.33;23.13;;;;;;;-1.85;90.07;99932.22;1710621;82;21207;-71
2022/01/26 08:17:15;;;;;;;46.73;24.67;;;;;;;-1.86;89.67;99938.96;1711830;82;21070;-73
2022/01/26 08:19:42;;;;;;;52.90;28.53;;;;;;;-1.89;89.53;99930.91;1717916;83;20987;-74
2022/01/26 08:22:11;;;;;;;45.53;25.80;;;;;;;-1.83;89.67;99939.97;1700701;83;21023;-73
2022/01/26 08:24:39;;;;;;;59.53;30.50;;;;;;;-1.78;89.53;99938.49;1719983;82;21056;-74
2022/01/26 08:27:10;;;;;;;44.87;24.87;;;;;;;-1.72;89.22;99948.85;1723149;83;21074;-74
2022/01/26 08:29:44;;;;;;;62.17;33.10;;;;;;;-1.72;88.71;99941.44;1718270;83;21511;-75
2022/01/26 08:32:08;;;;;;;61.40;31.23;;;;;;;-1.66;88.84;99944.73;1706140;82;21118;-74
2022/01/26 08:34:35;;;;;;;43.77;22.87;;;;;;;-1.65;88.62;99951.66;1703031;82;21066;-79
2022/01/26 08:37:05;;;;;;;43.50;26.47;;;;;;;-1.61;88.61;99943.75;1723601;83;20988;-75
2022/01/26 08:39:32;;;;;;;43.70;26.63;;;;;;;-1.56;88.29;99948.03;1721819;83;22264;-74
2022/01/26 08:42:00;;;;;;;43.20;23.53;;;;;;;-1.55;88.35;99956.28;1730559;83;21665;-78
2022/01/26 08:44:27;;;;;;;39.80;24.77;;;;;;;-1.56;87.82;99952.81;1709597;82;21014;-77
2022/01/26 08:46:55;;;;;;;36.53;19.47;;;;;;;-1.59;87.70;99949.20;1732404;81;20974;-78
2022/01/26 08:49:24;;;;;;;47.50;25.10;;;;;;;-1.56;87.83;99950.67;1729437;82;21038;-79
2022/01/26 08:51:52;;;;;;;46.00;29.47;;;;;;;-1.59;87.75;99955.80;1730016;81;20962;-83
2022/01/26 08:54:22;;;;;;;42.77;22.67;;;;;;;-1.56;87.74;99950.67;1709208;82;20931;-81
2022/01/26 08:56:53;;;;;;;43.67;26.23;;;;;;;-1.50;87.83;99953.48;1709182;83;21063;-78
2022/01/26 08:59:22;;;;;;;40.87;24.80;;;;;;;-1.47;87.68;99949.18;1730157;83;21343;-82
2022/01/26 09:01:49;;;;;;;37.07;19.63;;;;;;;-1.38;87.75;99948.17;1730810;82;21101;-77
2022/01/26 09:04:15;;;;;;;34.80;21.63;;;;;;;-1.28;87.43;99941.89;1731380;82;22173;-80
2022/01/26 09:07:13;;;;;;;;;;;;;;;;;;;;;
2022/01/26 09:09:10;;;;;;;37.27;23.33;;;;;;;-1.36;86.67;99942.25;1724966;82;21029;-75
2022/01/26 09:11:39;;;;;;;37.43;21.13;;;;;;;-1.38;86.79;99944.22;1701761;82;20944;-84
2022/01/26 09:14:08;;;;;;;41.43;22.63;;;;;;;-1.36;86.87;99952.80;1711518;82;20995;-75
2022/01/26 09:16:35;;;;;;;43.03;24.03;;;;;;;-1.33;86.65;99945.03;1736371;81;21596;-79
2022/01/26 09:19:12;;;;;;;34.90;22.70;;;;;;;-1.34;86.63;99938.11;1730136;82;21582;-77
2022/01/26 09:21:32;;;;;;;37.37;20.10;;;;;;;-1.26;86.78;99945.20;1708053;82;21080;-78
2022/01/26 09:23:58;;;;;;;31.47;17.90;;;;;;;-1.22;86.70;99944.70;1735221;82;21071;-76
2022/01/26 09:26:25;;;;;;;35.83;23.47;;;;;;;-1.11;86.84;99942.21;1726574;82;20992;-78
2022/01/26 09:28:51;;;;;;;33.43;20.37;;;;;;;-1.00;86.79;99946.61;1743183;82;21537;-80
2022/01/26 09:31:17;;;;;;;34.80;21.37;;;;;;;-0.93;86.13;99942.81;1730381;82;21022;-77
2022/01/26 09:33:44;;;;;;;86.00;46.17;;;;;;;-0.91;85.66;99946.09;1730575;82;20943;-73
2022/01/26 09:36:10;;;;;;;29.57;15.30;;;;;;;-0.90;85.55;99943.28;1701698;83;21018;-70
2022/01/26 09:38:38;;;;;;;30.10;18.37;;;;;;;-0.92;84.97;99953.21;1674455;84;21064;-78
2022/01/26 09:41:04;;;;;;;33.60;20.97;;;;;;;-0.94;85.09;99957.83;1714390;83;21125;-77
2022/01/26 09:43:32;;;;;;;73.00;38.80;;;;;;;-0.92;85.10;99940.50;1704895;84;20989;-84
2022/01/26 09:45:58;;;;;;;39.67;26.03;;;;;;;-0.94;84.88;99950.40;1690764;84;20976;-80
2022/01/26 09:48:24;;;;;;;35.60;22.40;;;;;;;-0.93;85.17;99947.60;1711703;83;21562;-81
2022/01/26 09:50:55;;;;;;;25.53;16.00;;;;;;;-0.86;85.23;99956.17;1705118;84;21016;-76
2022/01/26 09:53:22;;;;;;;26.20;17.00;;;;;;;-0.80;85.02;99943.09;1701416;83;21311;-75
2022/01/26 09:55:48;;;;;;;27.63;17.60;;;;;;;-0.71;84.95;99956.59;1706158;83;21025;-86
2022/01/26 09:58:15;;;;;;;28.20;16.97;;;;;;;-0.71;84.06;99950.48;1689685;83;22091;-89
2022/01/26 10:00:41;;;;;;;24.40;15.90;;;;;;;-0.70;84.17;99953.45;1689443;83;21569;-82
2022/01/26 10:03:08;;;;;;;22.60;15.43;;;;;;;-0.66;84.06;99961.36;1702452;84;21570;-79
2022/01/26 10:05:44;;;;;;;27.03;16.57;;;;;;;-0.64;83.65;99970.77;1742881;82;22186;-69
2022/01/26 10:19:06;;;;;;;22.33;14.23;;;;;;;-0.62;83.01;99952.09;1714498;82;21859;-73
2022/01/26 10:21:32;;;;;;;25.73;15.50;;;;;;;-0.61;82.97;99949.78;1714215;83;20904;-71
2022/01/26 10:24:08;;;;;;;25.70;16.27;;;;;;;-0.60;82.87;99951.44;1680954;85;21640;-71
2022/01/26 10:26:34;;;;;;;29.80;19.93;;;;;;;-0.64;82.79;99941.72;1692751;84;21071;-72
2022/01/26 10:29:02;;;;;;;23.20;14.13;;;;;;;-0.60;82.99;99943.51;1704199;83;21082;-73
2022/01/26 10:31:35;;;;;;;30.70;17.07;;;;;;;-0.55;82.85;99959.17;1693907;83;21873;-74
2022/01/26 10:34:10;;;;;;;28.33;16.90;;;;;;;-0.67;82.14;99950.49;1687382;84;21509;-73
2022/01/26 10:36:43;;;;;;;26.80;16.70;;;;;;;-0.66;82.48;99941.55;1707398;83;21049;-72
2022/01/26 10:39:21;;;;;;;16.97;10.68;;;;;;;-0.63;82.77;99946.51;1717174;82;34759;-74
2022/01/26 10:41:44;;;;;;;24.40;15.63;;;;;;;-0.64;82.43;99936.44;1709867;82;21073;-74
2022/01/26 10:44:12;;;;;;;25.40;16.17;;;;;;;-0.59;82.27;99946.48;1683109;83;21889;-72
2022/01/26 10:46:41;;;;;;;25.33;14.97;;;;;;;-0.56;82.36;99946.95;1721076;83;21102;-76
2022/01/26 10:49:19;;;;;;;21.90;13.50;;;;;;;-0.58;81.87;99950.78;1702519;83;21584;-74
2022/01/26 10:54:36;;;;;;;18.80;12.70;;;;;;;-0.47;82.00;99943.28;1692517;83;21079;-81
2022/01/26 10:56:56;;;;;;;22.73;14.77;;;;;;;-0.38;81.84;99948.02;1709004;83;21591;-83
2022/01/26 10:59:22;;;;;;;22.20;14.43;;;;;;;-0.31;81.69;99942.88;1698155;84;20961;-78
2022/01/26 11:01:49;;;;;;;27.07;16.00;;;;;;;-0.27;81.55;99945.48;1715573;82;21589;-76
2022/01/26 11:04:17;;;;;;;22.20;14.40;;;;;;;-0.22;81.29;99947.11;1677218;83;20996;-75
2022/01/26 11:06:46;;;;;;;13.37;8.97;;;;;;;-0.22;80.09;99948.44;1691895;84;21540;-75
2022/01/26 11:09:13;;;;;;;21.57;13.43;;;;;;;-0.33;78.90;99939.08;1678475;84;21555;-75
2022/01/26 11:11:40;;;;;;;19.37;12.60;;;;;;;-0.48;78.77;99947.44;1718406;82;21027;-72
2022/01/26 11:14:22;;;;;;;19.97;11.80;;;;;;;-0.45;79.44;99951.87;1664613;83;21661;-74
2022/01/26 11:16:58;;;;;;;18.00;12.53;;;;;;;-0.38;79.56;99954.63;1701797;83;21039;-78
2022/01/26 11:19:24;;;;;;;18.97;12.13;;;;;;;-0.34;79.33;99944.55;1698447;84;20982;-80
2022/01/26 11:21:51;;;;;;;18.00;10.83;;;;;;;-0.29;78.87;99954.11;1679898;84;21100;-76
2022/01/26 11:24:21;;;;;;;20.87;11.53;;;;;;;-0.29;78.64;99949.65;1699006;83;21540;-76
2022/01/26 11:26:49;;;;;;;19.67;13.23;;;;;;;-0.24;78.58;99949.92;1723609;83;21076;-75
2022/01/26 11:29:25;;;;;;;20.97;11.47;;;;;;;-0.23;78.23;99950.25;1700597;83;21011;-81
2022/01/26 11:32:18;;;;;;;19.53;12.07;;;;;;;-0.20;77.88;99941.17;1671505;84;21023;-76
2022/01/26 11:34:42;;;;;;;17.63;11.43;;;;;;;-0.16;77.52;99948.57;1697931;84;21150;-79
2022/01/26 11:37:13;;;;;;;15.10;10.87;;;;;;;-0.11;77.47;99961.27;1694403;84;21085;-77
2022/01/26 11:45:03;;;;;;;12.90;8.97;;;;;;;-0.11;76.22;99954.66;1703484;83;21047;-85
2022/01/26 11:45:14;;;;;;;14.50;9.00;;;;;;;-0.09;75.61;99950.83;1703539;83;21038;-81
2022/01/26 11:48:01;;;;;;;11.90;8.47;;;;;;;-0.10;75.18;99949.70;1693143;83;21121;-83
2022/01/26 11:50:30;;;;;;;8.93;6.53;;;;;;;-0.18;74.37;99949.23;1727239;83;21047;-84
2022/01/26 11:53:10;;;;;;;18.13;10.63;;;;;;;-0.32;74.05;99946.01;1699074;84;21034;-86
2022/01/26 11:55:48;;;;;;;17.63;9.87;;;;;;;-0.37;74.58;99947.03;1682714;83;21036;-84
2022/01/26 11:58:34;;;;;;;12.17;7.93;;;;;;;-0.36;74.69;99945.21;1703893;84;21062;-83
2022/01/26 12:04:05;;;;;;;14.60;7.40;;;;;;;-0.27;74.35;99948.95;1571278;90;21524;-73
2022/01/26 12:06:37;;;;;;;15.47;6.93;;;;;;;-0.26;71.61;99963.83;1672513;84;21091;-75
2022/01/26 12:09:06;;;;;;;10.97;5.83;;;;;;;-0.27;71.17;99946.81;1702017;84;21113;-74
2022/01/26 12:11:33;;;;;;;8.47;4.87;;;;;;;-0.28;70.72;99958.37;1701398;84;21062;-77
2022/01/26 12:14:05;;;;;;;10.63;6.73;;;;;;;-0.28;70.84;99959.20;1703596;84;21020;-76
2022/01/26 12:16:41;;;;;;;8.10;5.73;;;;;;;-0.28;70.29;99958.37;1702428;84;21512;-82
2022/01/26 12:35:56;;;;;;;6.70;3.53;;;;;;;-0.61;64.93;99971.73;1700760;84;21163;-90
2022/01/26 12:39:11;;;;;;;4.87;3.03;;;;;;;-0.61;63.34;99967.77;1672078;83;21096;-78
2022/01/26 12:43:53;;;;;;;7.20;3.60;;;;;;;-0.53;63.22;99968.26;1672138;84;21627;-75
2022/01/26 12:46:25;;;;;;;6.23;2.93;;;;;;;-0.48;62.35;99972.53;1707352;84;21058;-73
2022/01/26 12:48:59;;;;;;;4.47;2.50;;;;;;;-0.51;62.09;99975.50;1699334;84;21059;-80
2022/01/26 12:51:26;;;;;;;5.60;3.50;;;;;;;-0.53;62.19;99984.11;1707148;84;21039;-77
2022/01/26 12:54:00;;;;;;;7.50;3.70;;;;;;;-0.58;62.54;99979.83;1706738;83;22226;-76
2022/01/26 12:56:29;;;;;;;10.97;5.60;;;;;;;-0.62;63.38;99990.39;1667422;85;21083;-75
2022/01/26 12:59:01;;;;;;;9.17;6.07;;;;;;;-0.57;63.87;99993.34;1666307;84;21005;-78
2022/01/26 13:01:28;;;;;;;8.20;5.30;;;;;;;-0.56;64.14;99987.08;1711574;83;20986;-76
2022/01/26 13:04:00;;;;;;;7.80;5.43;;;;;;;-0.56;64.13;99990.54;1650814;86;21105;-72
2022/01/26 13:06:31;;;;;;;8.73;5.12;;;;;;;-0.63;64.59;99993.55;1667477;84;21113;-86
2022/01/26 13:09:00;;;;;;;6.23;3.97;;;;;;;-0.67;63.71;99988.78;1657885;85;21033;-86
2022/01/26 13:11:33;;;;;;;4.77;2.20;;;;;;;-0.71;62.72;99984.81;1679905;84;21084;-78
2022/01/26 13:14:28;;;;;;;4.60;2.97;;;;;;;-0.72;62.58;99996.39;1706956;84;20951;-77
2022/01/26 13:17:32;;;;;;;4.35;3.25;;;;;;;-0.74;60.91;100008.92;1707538;84;21058;-79
2022/01/26 13:25:09;;;;;;;5.30;3.80;;;;;;;-0.66;60.38;99986.45;1678165;85;21110;-78
2022/01/26 13:27:59;;;;;;;4.67;3.10;;;;;;;-0.63;60.07;99996.20;1669728;84;21101;-77
2022/01/26 13:30:37;;;;;;;3.08;2.70;;;;;;;-0.64;60.55;100003.78;1722125;83;21037;-77
2022/01/26 13:35:39;;;;;;;8.80;5.33;;;;;;;-0.69;61.07;100003.47;1704480;82;21010;-79